createdAt,value
2023-05-12T00:02:06.205Z,12.59
2023-05-12T00:05:04.375Z,12.59
2023-05-12T00:08:02.147Z,12.59
2023-05-12T00:10:59.587Z,12.61
2023-05-12T00:13:57.416Z,12.60
2023-05-12T00:16:55.191Z,12.59
2023-05-12T00:19:52.610Z,12.55
2023-05-12T00:22:50.249Z,12.52
2023-05-12T00:25:47.647Z,12.52
2023-05-12T00:28:45.787Z,12.50
2023-05-12T00:31:43.237Z,12.46
2023-05-12T00:34:40.824Z,12.45
2023-05-12T00:37:38.568Z,12.43
2023-05-12T00:40:35.961Z,12.42
2023-05-12T00:43:34.030Z,12.42
2023-05-12T00:46:31.511Z,12.41
2023-05-12T00:49:29.193Z,12.41
2023-05-12T00:52:26.600Z,12.42
2023-05-12T00:55:24.270Z,12.43
2023-05-12T00:58:22.044Z,12.43
2023-05-12T01:01:19.477Z,12.44
2023-05-12T01:04:17.166Z,12.43
2023-05-12T01:07:14.562Z,12.42
2023-05-12T01:10:12.159Z,12.40
2023-05-12T01:13:09.600Z,12.41
2023-05-12T01:16:07.197Z,12.39
2023-05-12T01:19:05.018Z,12.37
2023-05-12T01:22:02.410Z,12.35
2023-05-12T01:25:00.139Z,12.31
2023-05-12T01:27:57.630Z,12.27
2023-05-12T01:30:55.942Z,12.25
2023-05-12T01:33:53.377Z,12.25
2023-05-12T01:36:51.060Z,12.26
2023-05-12T01:39:48.661Z,12.22
2023-05-12T01:42:46.054Z,12.19
2023-05-12T01:45:43.843Z,12.16
2023-05-12T01:48:41.559Z,12.14
2023-05-12T01:51:39.146Z,12.11
2023-05-12T01:54:36.591Z,12.10
2023-05-12T01:57:34.272Z,12.09
2023-05-12T02:00:31.949Z,12.10
2023-05-12T02:03:29.462Z,12.10
2023-05-12T02:06:27.413Z,12.09
2023-05-12T02:09:24.815Z,12.08
2023-05-12T02:12:22.520Z,12.08
2023-05-12T02:15:19.872Z,12.07
2023-05-12T02:18:17.542Z,12.04
2023-05-12T02:21:15.119Z,12.03
2023-05-12T02:24:14.681Z,12.00
2023-05-12T02:27:12.650Z,11.99
2023-05-12T02:30:10.104Z,11.98
2023-05-12T02:33:07.755Z,11.94
2023-05-12T02:36:05.186Z,11.94
2023-05-12T02:39:03.141Z,11.96
2023-05-12T02:42:00.923Z,11.95
2023-05-12T02:44:58.586Z,11.95
2023-05-12T02:47:56.124Z,11.91
2023-05-12T02:50:53.721Z,11.88
2023-05-12T02:53:51.441Z,11.88
2023-05-12T02:56:48.888Z,11.88
2023-05-12T02:59:46.517Z,11.85
2023-05-12T03:02:43.992Z,11.82
2023-05-12T03:05:41.707Z,11.79
2023-05-12T03:08:39.141Z,11.75
2023-05-12T03:11:36.744Z,11.74
2023-05-12T03:14:34.351Z,11.68
2023-05-12T03:17:31.765Z,11.64
2023-05-12T03:20:29.383Z,11.62
2023-05-12T03:23:26.772Z,11.62
2023-05-12T03:26:24.302Z,11.61
2023-05-12T03:29:21.723Z,11.60
2023-05-12T03:32:19.398Z,11.61
2023-05-12T03:35:17.120Z,11.61
2023-05-12T03:38:14.576Z,11.62
2023-05-12T03:41:12.272Z,11.62
2023-05-12T03:44:10.222Z,11.61
2023-05-12T03:47:08.170Z,11.61
2023-05-12T03:50:06.504Z,11.61
2023-05-12T03:53:04.258Z,11.62
2023-05-12T03:56:01.921Z,11.61
2023-05-12T03:58:59.341Z,11.60
2023-05-12T04:01:57.078Z,11.60
2023-05-12T04:04:54.512Z,11.59
2023-05-12T04:07:52.389Z,11.59
2023-05-12T04:10:49.816Z,11.58
2023-05-12T04:13:47.911Z,11.57
2023-05-12T04:16:45.731Z,11.55
2023-05-12T04:19:43.330Z,11.53
2023-05-12T04:22:41.059Z,11.50
2023-05-12T04:25:38.500Z,11.49
2023-05-12T04:28:37.260Z,11.48
2023-05-12T04:31:35.069Z,11.50
2023-05-12T04:34:32.511Z,11.51
2023-05-12T04:37:30.239Z,11.53
2023-05-12T04:40:27.761Z,11.55
2023-05-12T04:46:26.104Z,11.53
2023-05-12T04:49:23.641Z,11.52
2023-05-12T04:52:24.623Z,11.53
2023-05-12T04:55:22.563Z,11.54
2023-05-12T04:58:20.359Z,11.57
2023-05-12T05:01:17.797Z,11.60
2023-05-12T05:04:15.441Z,11.60
2023-05-12T05:07:13.147Z,11.60
2023-05-12T05:10:10.847Z,11.60
2023-05-12T05:13:08.513Z,11.63
2023-05-12T05:16:06.888Z,11.67
2023-05-12T05:19:06.749Z,11.67
2023-05-12T05:22:09.542Z,11.69
2023-05-12T05:25:07.947Z,11.67
2023-05-12T05:28:05.910Z,11.67
2023-05-12T05:31:03.410Z,11.67
2023-05-12T05:34:01.268Z,11.69
2023-05-12T05:36:58.750Z,11.72
2023-05-12T05:39:56.465Z,11.74
2023-05-12T05:42:53.912Z,11.75
2023-05-12T05:45:51.627Z,11.73
2023-05-12T05:48:49.368Z,11.70
2023-05-12T05:51:46.820Z,11.66
2023-05-12T05:54:44.599Z,11.65
2023-05-12T05:57:42.775Z,11.65
2023-05-12T06:00:40.542Z,11.67
2023-05-12T06:03:38.584Z,11.71
2023-05-12T06:06:35.996Z,11.70
2023-05-12T06:09:34.155Z,11.70
2023-05-12T06:12:31.702Z,11.68
2023-05-12T06:15:29.383Z,11.68
2023-05-12T06:18:26.991Z,11.68
2023-05-12T06:21:24.697Z,11.67
2023-05-12T06:24:22.347Z,11.65
2023-05-12T06:27:19.779Z,11.65
2023-05-12T06:30:20.064Z,11.67
2023-05-12T06:33:17.517Z,11.67
2023-05-12T06:36:15.293Z,11.67
2023-05-12T06:39:13.152Z,11.67
2023-05-12T06:42:11.853Z,11.68
2023-05-12T06:45:09.636Z,11.68
2023-05-12T06:48:07.426Z,11.69
2023-05-12T06:51:05.655Z,11.69
2023-05-12T06:54:03.136Z,11.69
2023-05-12T06:57:00.894Z,11.69
2023-05-12T06:59:58.443Z,11.69
2023-05-12T07:02:56.030Z,11.72
2023-05-12T07:05:53.618Z,11.76
2023-05-12T07:08:51.639Z,11.77
2023-05-12T07:11:49.285Z,11.77
2023-05-12T07:14:46.868Z,11.78
2023-05-12T07:17:44.588Z,11.78
2023-05-12T07:20:42.096Z,11.79
2023-05-12T07:23:39.697Z,11.84
2023-05-12T07:26:37.646Z,11.93
2023-05-12T07:29:35.395Z,11.98
2023-05-12T07:32:33.371Z,12.01
2023-05-12T07:35:31.235Z,12.05
2023-05-12T07:41:44.784Z,12.05
2023-05-12T07:44:42.607Z,12.02
2023-05-12T07:47:40.658Z,12.04
2023-05-12T07:50:38.251Z,12.06
2023-05-12T07:53:36.273Z,12.03
2023-05-12T07:56:33.832Z,12.01
2023-05-12T07:59:31.605Z,12.00
2023-05-12T08:02:29.584Z,11.99
2023-05-12T08:05:28.710Z,11.98
2023-05-12T08:08:26.234Z,11.97
2023-05-12T08:11:24.204Z,11.95
2023-05-12T08:14:22.773Z,11.93
2023-05-12T08:17:20.830Z,11.93
2023-05-12T08:20:18.431Z,11.94
2023-05-12T08:23:16.298Z,11.95
2023-05-12T08:26:13.869Z,11.98
2023-05-12T08:29:11.709Z,12.05
2023-05-12T08:32:09.184Z,12.07
2023-05-12T08:35:07.160Z,12.05
2023-05-12T08:38:05.343Z,12.06
2023-05-12T08:41:02.739Z,12.07
2023-05-12T08:44:00.665Z,12.05
2023-05-12T08:46:58.228Z,12.07
2023-05-12T08:49:56.126Z,12.12
2023-05-12T08:52:53.669Z,12.18
2023-05-12T08:57:09.135Z,12.24
2023-05-12T08:59:09.569Z,12.32
2023-05-12T09:02:07.575Z,12.36
2023-05-12T09:05:05.062Z,12.43
2023-05-12T09:08:03.197Z,12.45
2023-05-12T09:11:00.741Z,12.47
2023-05-12T09:14:00.688Z,12.53
2023-05-12T09:16:58.840Z,12.55
2023-05-12T09:19:56.312Z,12.59
2023-05-12T09:22:56.428Z,12.62
2023-05-12T09:25:53.981Z,12.65
2023-05-12T09:28:52.165Z,12.71
2023-05-12T09:31:49.738Z,12.72
2023-05-12T09:34:47.597Z,12.72
2023-05-12T09:37:45.048Z,12.73
2023-05-12T09:40:43.671Z,12.73
2023-05-12T09:43:41.072Z,12.72
2023-05-12T09:46:40.405Z,12.75
2023-05-12T09:49:39.127Z,12.77
2023-05-12T09:52:36.656Z,12.78
2023-05-12T09:55:34.511Z,12.84
2023-05-12T09:58:31.944Z,12.90
2023-05-12T10:01:29.893Z,12.93
2023-05-12T10:04:27.452Z,12.83
2023-05-12T10:07:27.028Z,12.67
2023-05-12T10:10:24.482Z,12.51
2023-05-12T10:13:22.662Z,12.36
2023-05-12T10:16:20.148Z,12.23
2023-05-12T10:19:18.191Z,12.13
2023-05-12T10:22:16.219Z,12.07
2023-05-12T10:25:14.750Z,12.08
2023-05-12T10:28:13.431Z,12.16
2023-05-12T10:31:11.938Z,12.20
2023-05-12T10:34:09.487Z,12.20
2023-05-12T10:37:08.888Z,12.15
2023-05-12T10:40:06.707Z,12.10
2023-05-12T10:43:05.452Z,12.10
2023-05-12T10:46:02.953Z,12.07
2023-05-12T10:49:00.996Z,12.03
2023-05-12T10:51:58.548Z,12.01
2023-05-12T10:54:56.610Z,12.02
2023-05-12T10:57:54.321Z,12.07
2023-05-12T11:00:52.991Z,12.08
2023-05-12T11:03:51.501Z,12.07
2023-05-12T11:06:51.443Z,12.06
2023-05-12T11:12:49.983Z,12.05
2023-05-12T11:15:47.446Z,12.09
2023-05-12T11:18:45.438Z,12.09
2023-05-12T11:21:43.802Z,12.07
2023-05-12T11:24:41.977Z,12.08
2023-05-12T11:27:43.444Z,12.08
2023-05-12T11:30:41.499Z,12.07
2023-05-12T11:33:38.961Z,12.12
2023-05-12T11:36:36.935Z,12.17
2023-05-12T11:39:34.406Z,12.21
2023-05-12T11:42:32.368Z,12.24
2023-05-12T11:45:30.030Z,12.28
2023-05-12T11:48:27.903Z,12.35
2023-05-12T11:51:25.985Z,12.38
2023-05-12T11:54:23.389Z,12.35
2023-05-12T11:57:21.548Z,12.35
2023-05-12T12:00:19.069Z,12.33
2023-05-12T12:03:17.128Z,12.35
2023-05-12T12:06:14.813Z,12.36
2023-05-12T12:09:13.195Z,12.38
2023-05-12T12:12:10.659Z,12.32
2023-05-12T12:15:08.632Z,12.22
2023-05-12T12:18:06.440Z,12.15
2023-05-12T12:21:04.356Z,12.14
2023-05-12T12:24:01.828Z,12.12
2023-05-12T12:26:59.824Z,12.10
2023-05-12T12:29:57.425Z,12.07
2023-05-12T12:32:55.379Z,12.06
2023-05-12T12:35:53.218Z,12.06
2023-05-12T12:38:51.320Z,12.01
2023-05-12T12:41:49.320Z,11.97
2023-05-12T12:44:50.811Z,11.91
2023-05-12T12:47:49.192Z,11.86
2023-05-12T12:50:46.641Z,11.83
2023-05-12T12:53:46.095Z,11.82
2023-05-12T12:56:43.519Z,11.76
2023-05-12T12:59:41.367Z,11.70
2023-05-12T13:02:39.003Z,11.66
2023-05-12T13:05:37.017Z,11.62
2023-05-12T13:08:34.892Z,11.61
2023-05-12T13:11:32.960Z,11.59
2023-05-12T13:14:30.437Z,11.58
2023-05-12T13:17:29.149Z,11.56
2023-05-12T13:20:27.285Z,11.56
2023-05-12T13:23:25.281Z,11.57
2023-05-12T13:26:23.738Z,11.57
2023-05-12T13:29:22.125Z,11.53
2023-05-12T13:32:20.840Z,11.51
2023-05-12T13:35:18.956Z,11.49
2023-05-12T13:38:17.675Z,11.50
2023-05-12T13:41:15.762Z,11.54
2023-05-12T13:44:13.207Z,11.57
2023-05-12T13:47:11.079Z,11.58
2023-05-12T13:50:08.660Z,11.63
2023-05-12T13:53:07.141Z,11.65
2023-05-12T13:56:04.602Z,11.64
2023-05-12T13:59:02.659Z,11.62
2023-05-12T14:02:00.588Z,11.62
2023-05-12T14:04:58.730Z,11.62
2023-05-12T14:07:57.002Z,11.62
2023-05-12T14:10:54.946Z,11.59
2023-05-12T14:13:52.534Z,11.58
2023-05-12T14:16:50.572Z,11.58
2023-05-12T14:19:48.257Z,11.59
2023-05-12T14:22:46.131Z,11.63
2023-05-12T14:25:43.989Z,11.70
2023-05-12T14:28:41.738Z,11.72
2023-05-12T14:31:39.766Z,11.72
2023-05-12T14:34:37.196Z,11.71
2023-05-12T14:37:35.065Z,11.71
2023-05-12T14:40:32.836Z,11.66
2023-05-12T14:43:30.806Z,11.64
2023-05-12T14:46:28.759Z,11.64
2023-05-12T14:49:26.238Z,11.65
2023-05-12T14:52:24.426Z,11.71
2023-05-12T14:55:22.172Z,11.76
2023-05-12T14:58:21.988Z,11.79
2023-05-12T15:01:19.622Z,11.84
2023-05-12T15:04:17.745Z,11.88
2023-05-12T15:07:15.707Z,11.90
2023-05-12T15:10:13.684Z,11.93
2023-05-12T15:13:11.353Z,12.01
2023-05-12T15:16:09.936Z,12.07
2023-05-12T15:19:07.996Z,12.11
2023-05-12T15:22:06.079Z,12.15
2023-05-12T15:25:04.690Z,12.20
2023-05-12T15:28:02.450Z,12.18
2023-05-12T15:30:59.924Z,12.21
2023-05-12T15:33:57.874Z,12.24
2023-05-12T15:36:55.439Z,12.26
2023-05-12T15:39:55.880Z,12.30
2023-05-12T15:42:53.839Z,12.32
2023-05-12T15:45:51.285Z,12.35
2023-05-12T15:48:49.366Z,12.32
2023-05-12T15:51:47.066Z,12.30
2023-05-12T15:54:44.801Z,12.27
2023-05-12T15:57:42.258Z,12.27
2023-05-12T16:00:40.878Z,12.26
2023-05-12T16:03:38.799Z,12.23
2023-05-12T16:06:36.582Z,12.20
2023-05-12T16:09:34.229Z,12.13
2023-05-12T16:12:31.708Z,12.04
2023-05-12T16:15:29.679Z,11.97
2023-05-12T16:18:27.268Z,11.94
2023-05-12T16:21:25.123Z,11.85
2023-05-12T16:24:22.644Z,11.75
2023-05-12T16:27:20.548Z,11.67
2023-05-12T16:30:19.923Z,11.61
2023-05-12T16:33:18.216Z,11.55
2023-05-12T16:36:17.669Z,11.49
2023-05-12T16:39:15.438Z,11.44
2023-05-12T16:42:13.507Z,11.37
2023-05-12T16:45:11.333Z,11.34
2023-05-12T16:48:09.041Z,11.32
2023-05-12T16:51:06.981Z,11.27
2023-05-12T16:54:04.953Z,11.23
2023-05-12T16:57:03.346Z,11.18
2023-05-12T17:00:03.759Z,11.16
2023-05-12T17:03:03.760Z,11.15
2023-05-12T17:06:02.178Z,11.13
2023-05-12T17:08:59.920Z,11.09
2023-05-12T17:11:57.393Z,11.08
2023-05-12T17:15:06.245Z,11.03
2023-05-12T17:18:05.756Z,11.01
2023-05-12T17:21:04.111Z,10.98
2023-05-12T17:24:01.984Z,10.96
2023-05-12T17:26:59.842Z,10.95
2023-05-12T17:30:00.073Z,10.93
2023-05-12T17:32:57.605Z,10.93
2023-05-12T17:36:11.006Z,10.91
2023-05-12T17:39:10.686Z,10.89
2023-05-12T17:42:08.464Z,10.89
2023-05-12T17:45:06.218Z,10.90
2023-05-12T17:48:04.226Z,10.92
2023-05-12T17:51:03.794Z,10.93
2023-05-12T17:54:02.811Z,10.94
2023-05-12T17:57:00.666Z,10.96
2023-05-12T17:59:58.077Z,10.97
2023-05-12T18:02:56.447Z,10.98
2023-05-12T18:05:54.585Z,10.95
2023-05-12T18:08:52.356Z,10.95
2023-05-12T18:11:50.099Z,10.93
2023-05-12T18:14:48.415Z,10.92
2023-05-12T18:17:46.717Z,10.92
2023-05-12T18:20:44.135Z,10.92
2023-05-12T18:23:41.887Z,10.96
2023-05-12T18:26:39.529Z,10.98
2023-05-12T18:29:36.996Z,11.01
2023-05-12T18:32:34.849Z,11.05
2023-05-12T18:35:32.254Z,11.05
2023-05-12T18:38:30.019Z,11.05
2023-05-12T18:41:27.804Z,11.05
2023-05-12T18:44:25.414Z,11.05
2023-05-12T18:47:23.228Z,11.03
2023-05-12T18:50:20.799Z,11.02
2023-05-12T18:53:18.387Z,11.01
2023-05-12T18:56:15.877Z,11.00
2023-05-12T18:59:13.520Z,11.01
2023-05-12T19:02:11.106Z,11.01
2023-05-12T19:05:09.506Z,11.00
2023-05-12T19:08:07.333Z,10.97
2023-05-12T19:11:04.753Z,10.94
2023-05-12T19:14:12.331Z,10.90
2023-05-12T19:17:09.753Z,10.88
2023-05-12T19:20:07.445Z,10.87
2023-05-12T19:23:04.968Z,10.85
2023-05-12T19:26:02.693Z,10.83
2023-05-12T19:29:02.801Z,10.81
2023-05-12T19:32:00.308Z,10.81
2023-05-12T19:34:57.942Z,10.81
2023-05-12T19:37:55.704Z,10.78
2023-05-12T19:40:53.470Z,10.78
2023-05-12T19:43:51.036Z,10.80
2023-05-12T19:46:48.821Z,10.79
2023-05-12T19:49:46.979Z,10.80
2023-05-12T19:52:44.415Z,10.82
2023-05-12T19:55:42.103Z,10.82
2023-05-12T19:58:39.506Z,10.82
2023-05-12T20:01:37.357Z,10.83
2023-05-12T20:04:35.028Z,10.81
2023-05-12T20:07:33.282Z,10.83
2023-05-12T20:10:30.993Z,10.83
2023-05-12T20:13:28.415Z,10.83
2023-05-12T20:16:26.305Z,10.84
2023-05-12T20:19:23.777Z,10.85
2023-05-12T20:22:23.439Z,10.85
2023-05-12T20:25:21.065Z,10.89
2023-05-12T20:28:19.566Z,10.92
2023-05-12T20:31:17.386Z,10.89
2023-05-12T20:34:15.251Z,10.90
2023-05-12T20:37:14.204Z,10.91
2023-05-12T20:40:11.980Z,10.90
2023-05-12T20:43:09.531Z,10.90
2023-05-12T20:46:07.347Z,10.88
2023-05-12T20:49:05.683Z,10.86
2023-05-12T20:52:03.489Z,10.85
2023-05-12T20:55:01.060Z,10.85
2023-05-12T20:57:58.900Z,10.86
2023-05-12T21:00:56.287Z,10.85
2023-05-12T21:03:54.055Z,10.86
2023-05-12T21:06:53.286Z,10.85
2023-05-12T21:09:51.497Z,10.86
2023-05-12T21:12:48.985Z,10.86
2023-05-12T21:15:46.726Z,10.85
2023-05-12T21:18:44.384Z,10.85
2023-05-12T21:21:41.838Z,10.85
2023-05-12T21:24:39.820Z,10.83
2023-05-12T21:27:37.284Z,10.83
2023-05-12T21:30:36.551Z,10.84
2023-05-12T21:33:34.083Z,10.83
2023-05-12T21:36:32.010Z,10.81
2023-05-12T21:39:29.468Z,10.80
2023-05-12T21:42:27.252Z,10.82
2023-05-12T21:45:24.638Z,10.83
2023-05-12T21:48:22.482Z,10.81
2023-05-12T21:51:20.754Z,10.78
2023-05-12T21:54:18.290Z,10.76
2023-05-12T21:57:15.906Z,10.74
2023-05-12T22:00:14.698Z,10.72
2023-05-12T22:03:12.404Z,10.69
2023-05-12T22:06:10.057Z,10.70
2023-05-12T22:09:07.847Z,10.70
2023-05-12T22:12:05.619Z,10.69
2023-05-12T22:15:03.048Z,10.70
2023-05-12T22:18:01.238Z,10.70
2023-05-12T22:20:58.948Z,10.70
2023-05-12T22:23:57.527Z,10.73
2023-05-12T22:26:55.292Z,10.72
2023-05-12T22:29:52.727Z,10.72
2023-05-12T22:32:50.489Z,10.71
2023-05-12T22:35:47.878Z,10.70
2023-05-12T22:38:45.536Z,10.70
2023-05-12T22:41:42.924Z,10.69
2023-05-12T22:44:40.675Z,10.69
2023-05-12T22:47:38.166Z,10.70
2023-05-12T22:50:35.889Z,10.73
2023-05-12T22:53:33.623Z,10.71
2023-05-12T22:56:31.061Z,10.73
2023-05-12T22:59:28.615Z,10.74
2023-05-12T23:02:26.184Z,10.74
2023-05-12T23:05:23.790Z,10.75
2023-05-12T23:08:21.249Z,10.76
2023-05-12T23:11:18.934Z,10.74
2023-05-12T23:14:16.509Z,10.74
2023-05-12T23:17:13.966Z,10.75
2023-05-12T23:20:11.607Z,10.75
2023-05-12T23:23:09.042Z,10.76
2023-05-12T23:26:06.833Z,10.76
2023-05-12T23:29:04.307Z,10.77
2023-05-12T23:32:02.169Z,10.77
2023-05-12T23:35:00.007Z,10.76
2023-05-12T23:37:57.453Z,10.76
2023-05-12T23:40:55.251Z,10.76
2023-05-12T23:43:52.762Z,10.76
2023-05-12T23:46:50.673Z,10.78
2023-05-12T23:49:48.291Z,10.82
2023-05-12T23:52:46.628Z,10.84
2023-05-12T23:55:44.087Z,10.86
2023-05-12T23:58:42.188Z,10.90
